TAF KGLH
KGLH 090625Z 0906/1006 15005KT P6SM SCT250 FM091400 16007KT P6SM OVC022 FM091600 18013G18KT P6SM OVC015 FM100300 17008KT 4SM BR OVC007=
METAR KGLH
WC KGLH
WS KGLH
WV KGLH